Eurodam — PHOS — position and weather

sailwx.info

Track history (hours):
 
Tides and Currents Weather Stations Pressure Air Temp Water Temp Dewpoint Dewpoint Depression Visibility Wind Speed Wind Dir Waves Ship Positions

Eurodam (Netherlands)

Last reported at 2016-May-01 01:12 UTC. Time now 2016-May-01 02:12 UTC.
Position N 37°60' E 016°32'.

Length 285 m; draft 8.1 m.

Type: Ship. MMSI: 245206000.

Date/timePositionNaut miles runAvg speedWind from/ knotsBaromVisibWave heightAir tempDewpointWater temp
2016-May-01 01:12N 37°60' E 016°32'1210.2
2016-May-01 00:00N 37°54' E 016°18'6 4.0 220 / 91015.210.8 17.014.120.0
2016-Apr-30 22:34N 37°52' E 016°11'14 9.0
2016-Apr-30 21:00N 37°48' E 015°54'3 7.1 999 / 11015.810.8 17.014.119.0
2016-Apr-30 20:32N 37°51' E 015°53'7 6.8
2016-Apr-30 19:33N 37°52' E 015°45'7 6.9
2016-Apr-30 18:34N 37°54' E 015°37'7 7.5
2016-Apr-30 17:33N 38°01' E 015°33'9 8.6
2016-Apr-30 16:34N 38°09' E 015°35'3 2.5
2016-Apr-30 15:32N 38°12' E 015°33'0 0.0
2016-Apr-30 14:29N 38°12' E 015°33'0 0.0
2016-Apr-30 13:32N 38°12' E 015°33'0 0.0
2016-Apr-30 12:32N 38°12' E 015°33'0 0.0
2016-Apr-30 11:32N 38°12' E 015°33'0 0.0
2016-Apr-30 10:32N 38°12' E 015°33'0 0.0
2016-Apr-30 09:26N 38°12' E 015°33'0 0.0
2016-Apr-30 08:32N 38°12' E 015°33'0 0.0
2016-Apr-30 07:32N 38°12' E 015°33'0 0.0
2016-Apr-30 06:32N 38°12' E 015°33'0 0.0
2016-Apr-30 05:32N 38°12' E 015°33'4 4.3
2016-Apr-30 04:34N 38°15' E 015°37'1312.7
2016-Apr-30 03:33N 38°27' E 015°33'1515.4
2016-Apr-30 02:33N 38°41' E 015°25'915.7
2016-Apr-30 02:00N 38°48' E 015°18'716.0 160 / 51012.0 5.4 16.714.516.2
2016-Apr-30 01:31N 38°55' E 015°15'2113.4
2016-Apr-30 00:00N 39°12' E 015°00'4816.5 230 / 51017.2 5.4 0.519.013.616.3
2016-Apr-29 21:04N 39°55' E 014°32'815.4
2016-Apr-29 20:33N 40°02' E 014°27'1515.4
2016-Apr-29 19:33N 40°16' E 014°18'1615.6
2016-Apr-29 18:32N 40°30' E 014°08'712.3
2016-Apr-29 18:00N 40°36' E 014°12'819.6 320 / 201015.510.8 0.519.013.616.3
2016-Apr-29 17:33N 40°44' E 014°15'6 0.7
2016-Apr-29 08:29N 40°51' E 014°16'0 0.0
2016-Apr-29 07:05N 40°51' E 014°16'0 0.0
2016-Apr-29 06:29N 40°51' E 014°16'0 0.0
2016-Apr-29 05:31N 40°51' E 014°16'4 4.0
2016-Apr-29 04:33N 40°47' E 014°17'1211.9
2016-Apr-29 03:33N 40°38' E 014°06'1424.0
2016-Apr-29 03:00N 40°36' E 013°48'2 3.9 120 / 141008.010.8 0.517.414.716.0
2016-Apr-29 02:33N 40°37' E 013°46'1615.5
2016-Apr-29 01:32N 40°40' E 013°26'1515.8
2016-Apr-29 00:33N 40°44' E 013°06'916.7
2016-Apr-29 00:00N 40°42' E 012°54'2617.9 360 / 191012.510.8 16.012.518.0
2016-Apr-28 22:33N 41°02' E 012°32'7215.7
2016-Apr-28 18:00N 42°00' E 011°36'27 1.7 210 / 81012.910.8 0.516.112.815.7
2016-Apr-28 02:00N 42°06' E 011°00'2618.2 190 / 261006.010.8 1.515.611.415.5
2016-Apr-28 00:32N 42°24' E 010°34'917.4
2016-Apr-28 00:00N 42°30' E 010°24'1418.9 030 / 351010.510.8 1.019.015.916.0
2016-Apr-27 23:16N 42°38' E 010°10'2816.3
2016-Apr-27 21:33N 43°06' E 010°04'1221.2
2016-Apr-27 21:00N 43°18' E 010°06'614.6 280 / 411009.510.8 1.020.011.015.0
2016-Apr-27 20:33N 43°24' E 010°08'1110.8
2016-Apr-27 19:33N 43°32' E 010°17'1 1.1
2016-Apr-27 18:31N 43°34' E 010°18'0 0.0
2016-Apr-27 17:31N 43°34' E 010°18'0 0.0
2016-Apr-27 16:31N 43°34' E 010°18'0 0.0
2016-Apr-27 15:31N 43°34' E 010°18'0 0.0
2016-Apr-27 14:30N 43°34' E 010°18'0 0.0
2016-Apr-27 13:33N 43°34' E 010°18'0 0.0
2016-Apr-27 12:33N 43°34' E 010°18'0 0.0
2016-Apr-27 11:33N 43°34' E 010°18'0 0.0
2016-Apr-27 10:32N 43°34' E 010°18'0 0.0
2016-Apr-27 09:32N 43°34' E 010°18'0 0.0
2016-Apr-27 08:32N 43°34' E 010°18'0 0.0
2016-Apr-27 07:31N 43°34' E 010°18'0 0.0
2016-Apr-27 06:33N 43°34' E 010°18'3 3.5
2016-Apr-27 05:33N 43°31' E 010°15'8 8.3
2016-Apr-27 04:33N 43°27' E 010°05'6 5.6
2016-Apr-27 03:33N 43°31' E 010°00'1313.1
2016-Apr-27 02:33N 43°32' E 009°42'1313.2
2016-Apr-27 01:33N 43°34' E 009°24'1312.9
2016-Apr-27 00:33N 43°33' E 009°06'916.2
2016-Apr-27 00:00N 43°30' E 008°54'716.7 240 / 321005.710.8 2.015.0 7.317.3
2016-Apr-26 23:33N 43°36' E 008°49'1212.3
2016-Apr-26 22:33N 43°38' E 008°32'1313.1
2016-Apr-26 21:33N 43°38' E 008°15'6 6.4
2016-Apr-26 20:33N 43°41' E 008°22'3312.9
2016-Apr-26 18:00N 43°42' E 007°36'2 3.7 050 / 161002.510.8 1.018.010.115.3
2016-Apr-26 17:33N 43°43' E 007°37'8 8.2
2016-Apr-26 16:33N 43°42' E 007°26'1 0.8
2016-Apr-26 15:33N 43°43' E 007°26'0 0.4
2016-Apr-26 14:33N 43°44' E 007°26'0 0.1
2016-Apr-26 13:33N 43°44' E 007°26'0 0.1
2016-Apr-26 12:33N 43°44' E 007°26'0 0.1
2016-Apr-26 11:33N 43°44' E 007°26'0 0.0
2016-Apr-26 10:33N 43°44' E 007°26'0 0.0
2016-Apr-26 09:34N 43°44' E 007°26'0 0.0
2016-Apr-26 08:33N 43°44' E 007°26'0 0.1
2016-Apr-26 07:33N 43°44' E 007°26'0 0.0
2016-Apr-26 06:33N 43°44' E 007°26'0 0.0
2016-Apr-26 05:30N 43°44' E 007°26'4 4.3
2016-Apr-26 04:33N 43°40' E 007°24'9 9.5
2016-Apr-26 03:33N 43°32' E 007°17'10 9.5
2016-Apr-26 02:33N 43°24' E 007°10'1210.1
2016-Apr-26 01:23N 43°13' E 007°02'1712.2
2016-Apr-26 00:00N 43°00' E 006°48'39 6.1 260 / 211010.110.8 1.514.5 7.117.1
2016-Apr-25 17:33N 43°05' E 005°55'1 1.4
2016-Apr-25 16:33N 43°06' E 005°54'0 0.0
2016-Apr-25 15:29N 43°06' E 005°54'0 0.0
2016-Apr-25 14:32N 43°06' E 005°54'0 0.0
2016-Apr-25 13:33N 43°06' E 005°54'0 0.0
2016-Apr-25 12:32N 43°06' E 005°54'0 0.0
2016-Apr-25 11:33N 43°06' E 005°54'0 0.0
2016-Apr-25 10:33N 43°06' E 005°54'0 0.0
2016-Apr-25 09:33N 43°06' E 005°54'0 0.0
2016-Apr-25 08:33N 43°06' E 005°54'0 0.0
2016-Apr-25 07:33N 43°06' E 005°54'0 0.0
2016-Apr-25 06:33N 43°06' E 005°54'2 2.5
2016-Apr-25 05:33N 43°05' E 005°57'2410.9
2016-Apr-25 03:20N 42°56' E 005°26'618.7
2016-Apr-25 03:00N 42°54' E 005°18'1817.6 330 / 371007.210.8 3.510.0 2.813.8
2016-Apr-25 02:00N 42°54' E 004°54'3115.7 320 / 431014.210.8 3.514.0 8.416.0
2016-Apr-25 00:00N 42°48' E 004°12'4013.3 320 / 461015.210.8 14.0 8.419.0
2016-Apr-24 21:00N 42°18' E 003°36'89 5.1 330 / 601015.210.8 13.0 7.416.0
2016-Apr-24 03:31N 41°15' E 002°11'1019.6
2016-Apr-24 03:00N 41°06' E 002°06'613.4 340 / 91007.010.8 0.514.310.914.7
2016-Apr-24 02:33N 41°01' E 002°02'1717.0
2016-Apr-24 01:33N 40°46' E 001°52'1221.9
2016-Apr-24 01:00N 40°36' E 001°42'511.7 330 / 91012.510.8 1.015.011.618.0
2016-Apr-24 00:33N 40°31' E 001°42'1616.5
2016-Apr-23 23:33N 40°16' E 001°32'1716.8
2016-Apr-23 22:33N 40°01' E 001°22'1716.6
2016-Apr-23 21:33N 39°47' E 001°11'5216.5
2016-Apr-23 18:24N 38°60' E 000°42'3416.9
2016-Apr-23 16:24N 38°31' E 000°20'923.1
2016-Apr-23 16:00N 38°24' E 000°12'511.1 240 / 121011.910.8 0.518.014.515.8
2016-Apr-23 15:34N 38°19' E 000°10'1627.6
2016-Apr-23 15:00N 38°06' E 000°00'2 4.5 190 / 201012.110.8 0.522.016.916.1
2016-Apr-23 14:33N 38°05' W 000°02'1717.5
2016-Apr-23 13:33N 37°51' W 000°15'1717.1
2016-Apr-23 12:33N 37°37' W 000°27'1716.9
2016-Apr-23 11:33N 37°25' W 000°42'1716.7
2016-Apr-23 10:32N 37°13' W 000°58'10816.4
2016-Apr-23 04:00N 36°12' W 002°48'7418.4 180 / 61016.010.8 16.213.516.0
2016-Apr-23 00:00N 36°00' W 004°18'4920.0 240 / 121018.810.8 15.312.618.1
2016-Apr-22 21:34N 35°60' W 005°18'4913.7
2016-Apr-22 18:00N 36°06' W 006°18'1918.6 310 / 121018.110.8 0.518.013.915.6
2016-Apr-22 17:00N 36°24' W 006°24'10 0.6 290 / 151018.610.8 0.518.013.915.9
2016-Apr-22 00:00N 36°24' W 006°36'42 6.0 350 / 131021.010.8 0.516.111.019.0
2016-Apr-21 17:00N 35°54' W 006°00'21 6.2 360 / 61018.010.8 0.515.610.616.1
2016-Apr-21 13:33N 35°59' W 005°34'7 7.4
2016-Apr-21 12:33N 36°01' W 005°26'6 6.0
2016-Apr-21 11:33N 36°07' W 005°24'2 0.4
2016-Apr-21 05:33N 36°09' W 005°22'6 6.3
2016-Apr-21 04:33N 36°06' W 005°15'  
Track history (hours):
 
Tides and Currents Weather Stations Pressure Air Temp Water Temp Dewpoint Dewpoint Depression Visibility Wind Speed Wind Dir Waves Ship Positions

Eurodam (Netherlands)

Last reported at 2016-May-01 01:12 UTC. Time now 2016-May-01 02:12 UTC.
Position N 37°60' E 016°32'.

Length 285 m; draft 8.1 m.

Type: Ship. MMSI: 245206000.

Date/timePositionNaut miles runAvg speedWind from/ knotsBaromVisibWave heightAir tempDewpointWater temp
2016-May-01 01:12N 37°60' E 016°32'1210.2
2016-May-01 00:00N 37°54' E 016°18'6 4.0 220 / 91015.210.8 17.014.120.0
2016-Apr-30 22:34N 37°52' E 016°11'14 9.0
2016-Apr-30 21:00N 37°48' E 015°54'3 7.1 999 / 11015.810.8 17.014.119.0
2016-Apr-30 20:32N 37°51' E 015°53'7 6.8
2016-Apr-30 19:33N 37°52' E 015°45'7 6.9
2016-Apr-30 18:34N 37°54' E 015°37'7 7.5
2016-Apr-30 17:33N 38°01' E 015°33'9 8.6
2016-Apr-30 16:34N 38°09' E 015°35'3 2.5
2016-Apr-30 15:32N 38°12' E 015°33'0 0.0
2016-Apr-30 14:29N 38°12' E 015°33'0 0.0
2016-Apr-30 13:32N 38°12' E 015°33'0 0.0
2016-Apr-30 12:32N 38°12' E 015°33'0 0.0
2016-Apr-30 11:32N 38°12' E 015°33'0 0.0
2016-Apr-30 10:32N 38°12' E 015°33'0 0.0
2016-Apr-30 09:26N 38°12' E 015°33'0 0.0
2016-Apr-30 08:32N 38°12' E 015°33'0 0.0
2016-Apr-30 07:32N 38°12' E 015°33'0 0.0
2016-Apr-30 06:32N 38°12' E 015°33'0 0.0
2016-Apr-30 05:32N 38°12' E 015°33'4 4.3
2016-Apr-30 04:34N 38°15' E 015°37'1312.7
2016-Apr-30 03:33N 38°27' E 015°33'1515.4
2016-Apr-30 02:33N 38°41' E 015°25'915.7
2016-Apr-30 02:00N 38°48' E 015°18'716.0 160 / 51012.0 5.4 16.714.516.2
2016-Apr-30 01:31N 38°55' E 015°15'2113.4
2016-Apr-30 00:00N 39°12' E 015°00'4816.5 230 / 51017.2 5.4 0.519.013.616.3
2016-Apr-29 21:04N 39°55' E 014°32'815.4
2016-Apr-29 20:33N 40°02' E 014°27'1515.4
2016-Apr-29 19:33N 40°16' E 014°18'1615.6
2016-Apr-29 18:32N 40°30' E 014°08'712.3
2016-Apr-29 18:00N 40°36' E 014°12'819.6 320 / 201015.510.8 0.519.013.616.3
2016-Apr-29 17:33N 40°44' E 014°15'6 0.7
2016-Apr-29 08:29N 40°51' E 014°16'0 0.0
2016-Apr-29 07:05N 40°51' E 014°16'0 0.0
2016-Apr-29 06:29N 40°51' E 014°16'0 0.0
2016-Apr-29 05:31N 40°51' E 014°16'4 4.0
2016-Apr-29 04:33N 40°47' E 014°17'1211.9
2016-Apr-29 03:33N 40°38' E 014°06'1424.0
2016-Apr-29 03:00N 40°36' E 013°48'2 3.9 120 / 141008.010.8 0.517.414.716.0
2016-Apr-29 02:33N 40°37' E 013°46'1615.5
2016-Apr-29 01:32N 40°40' E 013°26'1515.8
2016-Apr-29 00:33N 40°44' E 013°06'916.7
2016-Apr-29 00:00N 40°42' E 012°54'2617.9 360 / 191012.510.8 16.012.518.0
2016-Apr-28 22:33N 41°02' E 012°32'7215.7
2016-Apr-28 18:00N 42°00' E 011°36'27 1.7 210 / 81012.910.8 0.516.112.815.7
2016-Apr-28 02:00N 42°06' E 011°00'2618.2 190 / 261006.010.8 1.515.611.415.5
2016-Apr-28 00:32N 42°24' E 010°34'917.4
2016-Apr-28 00:00N 42°30' E 010°24'1418.9 030 / 351010.510.8 1.019.015.916.0
2016-Apr-27 23:16N 42°38' E 010°10'2816.3
2016-Apr-27 21:33N 43°06' E 010°04'1221.2
2016-Apr-27 21:00N 43°18' E 010°06'614.6 280 / 411009.510.8 1.020.011.015.0
2016-Apr-27 20:33N 43°24' E 010°08'1110.8
2016-Apr-27 19:33N 43°32' E 010°17'1 1.1
2016-Apr-27 18:31N 43°34' E 010°18'0 0.0
2016-Apr-27 17:31N 43°34' E 010°18'0 0.0
2016-Apr-27 16:31N 43°34' E 010°18'0 0.0
2016-Apr-27 15:31N 43°34' E 010°18'0 0.0
2016-Apr-27 14:30N 43°34' E 010°18'0 0.0
2016-Apr-27 13:33N 43°34' E 010°18'0 0.0
2016-Apr-27 12:33N 43°34' E 010°18'0 0.0
2016-Apr-27 11:33N 43°34' E 010°18'0 0.0
2016-Apr-27 10:32N 43°34' E 010°18'0 0.0
2016-Apr-27 09:32N 43°34' E 010°18'0 0.0
2016-Apr-27 08:32N 43°34' E 010°18'0 0.0
2016-Apr-27 07:31N 43°34' E 010°18'0 0.0
2016-Apr-27 06:33N 43°34' E 010°18'3 3.5
2016-Apr-27 05:33N 43°31' E 010°15'8 8.3
2016-Apr-27 04:33N 43°27' E 010°05'6 5.6
2016-Apr-27 03:33N 43°31' E 010°00'1313.1
2016-Apr-27 02:33N 43°32' E 009°42'1313.2
2016-Apr-27 01:33N 43°34' E 009°24'1312.9
2016-Apr-27 00:33N 43°33' E 009°06'916.2
2016-Apr-27 00:00N 43°30' E 008°54'716.7 240 / 321005.710.8 2.015.0 7.317.3
2016-Apr-26 23:33N 43°36' E 008°49'1212.3
2016-Apr-26 22:33N 43°38' E 008°32'1313.1
2016-Apr-26 21:33N 43°38' E 008°15'6 6.4
2016-Apr-26 20:33N 43°41' E 008°22'3312.9
2016-Apr-26 18:00N 43°42' E 007°36'2 3.7 050 / 161002.510.8 1.018.010.115.3
2016-Apr-26 17:33N 43°43' E 007°37'8 8.2
2016-Apr-26 16:33N 43°42' E 007°26'1 0.8
2016-Apr-26 15:33N 43°43' E 007°26'0 0.4
2016-Apr-26 14:33N 43°44' E 007°26'0 0.1
2016-Apr-26 13:33N 43°44' E 007°26'0 0.1
2016-Apr-26 12:33N 43°44' E 007°26'0 0.1
2016-Apr-26 11:33N 43°44' E 007°26'0 0.0
2016-Apr-26 10:33N 43°44' E 007°26'0 0.0
2016-Apr-26 09:34N 43°44' E 007°26'0 0.0
2016-Apr-26 08:33N 43°44' E 007°26'0 0.1
2016-Apr-26 07:33N 43°44' E 007°26'0 0.0
2016-Apr-26 06:33N 43°44' E 007°26'0 0.0
2016-Apr-26 05:30N 43°44' E 007°26'4 4.3
2016-Apr-26 04:33N 43°40' E 007°24'9 9.5
2016-Apr-26 03:33N 43°32' E 007°17'10 9.5
2016-Apr-26 02:33N 43°24' E 007°10'1210.1
2016-Apr-26 01:23N 43°13' E 007°02'1712.2
2016-Apr-26 00:00N 43°00' E 006°48'39 6.1 260 / 211010.110.8 1.514.5 7.117.1
2016-Apr-25 17:33N 43°05' E 005°55'1 1.4
2016-Apr-25 16:33N 43°06' E 005°54'0 0.0
2016-Apr-25 15:29N 43°06' E 005°54'0 0.0
2016-Apr-25 14:32N 43°06' E 005°54'0 0.0
2016-Apr-25 13:33N 43°06' E 005°54'0 0.0
2016-Apr-25 12:32N 43°06' E 005°54'0 0.0
2016-Apr-25 11:33N 43°06' E 005°54'0 0.0
2016-Apr-25 10:33N 43°06' E 005°54'0 0.0
2016-Apr-25 09:33N 43°06' E 005°54'0 0.0
2016-Apr-25 08:33N 43°06' E 005°54'0 0.0
2016-Apr-25 07:33N 43°06' E 005°54'0 0.0
2016-Apr-25 06:33N 43°06' E 005°54'2 2.5
2016-Apr-25 05:33N 43°05' E 005°57'2410.9
2016-Apr-25 03:20N 42°56' E 005°26'618.7
2016-Apr-25 03:00N 42°54' E 005°18'1817.6 330 / 371007.210.8 3.510.0 2.813.8
2016-Apr-25 02:00N 42°54' E 004°54'3115.7 320 / 431014.210.8 3.514.0 8.416.0
2016-Apr-25 00:00N 42°48' E 004°12'4013.3 320 / 461015.210.8 14.0 8.419.0
2016-Apr-24 21:00N 42°18' E 003°36'89 5.1 330 / 601015.210.8 13.0 7.416.0
2016-Apr-24 03:31N 41°15' E 002°11'1019.6
2016-Apr-24 03:00N 41°06' E 002°06'613.4 340 / 91007.010.8 0.514.310.914.7
2016-Apr-24 02:33N 41°01' E 002°02'1717.0
2016-Apr-24 01:33N 40°46' E 001°52'1221.9
2016-Apr-24 01:00N 40°36' E 001°42'511.7 330 / 91012.510.8 1.015.011.618.0
2016-Apr-24 00:33N 40°31' E 001°42'1616.5
2016-Apr-23 23:33N 40°16' E 001°32'1716.8
2016-Apr-23 22:33N 40°01' E 001°22'1716.6
2016-Apr-23 21:33N 39°47' E 001°11'5216.5
2016-Apr-23 18:24N 38°60' E 000°42'3416.9
2016-Apr-23 16:24N 38°31' E 000°20'923.1
2016-Apr-23 16:00N 38°24' E 000°12'511.1 240 / 121011.910.8 0.518.014.515.8
2016-Apr-23 15:34N 38°19' E 000°10'1627.6
2016-Apr-23 15:00N 38°06' E 000°00'2 4.5 190 / 201012.110.8 0.522.016.916.1
2016-Apr-23 14:33N 38°05' W 000°02'1717.5
2016-Apr-23 13:33N 37°51' W 000°15'1717.1
2016-Apr-23 12:33N 37°37' W 000°27'1716.9
2016-Apr-23 11:33N 37°25' W 000°42'1716.7
2016-Apr-23 10:32N 37°13' W 000°58'10816.4
2016-Apr-23 04:00N 36°12' W 002°48'7418.4 180 / 61016.010.8 16.213.516.0
2016-Apr-23 00:00N 36°00' W 004°18'4920.0 240 / 121018.810.8 15.312.618.1
2016-Apr-22 21:34N 35°60' W 005°18'4913.7
2016-Apr-22 18:00N 36°06' W 006°18'1918.6 310 / 121018.110.8 0.518.013.915.6
2016-Apr-22 17:00N 36°24' W 006°24'10 0.6 290 / 151018.610.8 0.518.013.915.9
2016-Apr-22 00:00N 36°24' W 006°36'42 6.0 350 / 131021.010.8 0.516.111.019.0
2016-Apr-21 17:00N 35°54' W 006°00'21 6.2 360 / 61018.010.8 0.515.610.616.1
2016-Apr-21 13:33N 35°59' W 005°34'7 7.4
2016-Apr-21 12:33N 36°01' W 005°26'6 6.0
2016-Apr-21 11:33N 36°07' W 005°24'2 0.4
2016-Apr-21 05:33N 36°09' W 005°22'6 6.3
2016-Apr-21 04:33N 36°06' W 005°15'  

Dump ship's entire track history